Time;durP1;ratioP1;P1;durP2;ratioP2;P2;SDS_P1;SDS_P2;PMS_P1;PMS_P2;Temp;Humidity;BMP_temperature;BMP_pressure;BME280_temperature;BME280_humidity;BME280_pressure;Samples;Min_cycle;Max_cycle;Signal;HPM_P1;HPM_P2
2022/06/05 00:01:21;;;;;;;13.48;11.38;;;;;;;28.96;69.49;100801.81;5052416;28;70342;-41
2022/06/05 00:04:17;;;;;;;13.27;10.93;;;;;;;28.88;70.22;100822.81;5039491;28;65586;-42
2022/06/05 00:07:28;;;;;;;15.05;10.77;;;;;;;28.92;70.38;100829.47;5045851;28;69927;-42
2022/06/05 00:10:07;;;;;;;15.90;9.45;;;;;;;29.00;69.73;100820.31;5050893;28;66591;-39
2022/06/05 00:12:40;;;;;;;12.40;9.13;;;;;;;28.99;70.49;100824.06;5040668;28;70382;-42
2022/06/05 00:15:11;;;;;;;11.43;9.98;;;;;;;29.01;70.99;100827.38;5045748;28;66505;-37
2022/06/05 00:17:42;;;;;;;16.07;8.93;;;;;;;28.99;69.99;100819.47;5041145;28;69589;-36
2022/06/05 00:20:13;;;;;;;11.88;9.77;;;;;;;29.10;70.46;100828.84;5046211;28;66552;-37
2022/06/05 00:22:46;;;;;;;12.10;9.40;;;;;;;29.13;70.17;100836.53;5052817;28;69823;-37
2022/06/05 00:25:17;;;;;;;10.32;8.38;;;;;;;29.18;69.66;100839.44;5049717;28;66376;-38
2022/06/05 00:28:08;;;;;;;11.70;9.10;;;;;;;28.89;70.59;100808.25;5052954;28;70430;-38
2022/06/05 00:30:53;;;;;;;12.23;9.32;;;;;;;29.18;70.22;100850.25;5048805;28;64952;-38
2022/06/05 00:33:36;;;;;;;10.50;8.45;;;;;;;29.24;70.57;100853.97;5043251;28;70007;-36
2022/06/05 00:36:19;;;;;;;13.05;9.13;;;;;;;29.30;70.01;100850.44;5049358;28;66431;-38
2022/06/05 00:39:13;;;;;;;14.73;11.02;;;;;;;29.29;70.19;100852.31;5051975;28;70124;-37
2022/06/05 00:42:12;;;;;;;15.15;10.95;;;;;;;29.35;70.48;100856.88;5043816;28;65719;-38
2022/06/05 00:44:54;;;;;;;16.50;11.02;;;;;;;29.22;70.92;100835.28;5043157;28;70104;-38
2022/06/05 00:47:26;;;;;;;;;;;;;;;29.12;71.64;100857.31;5025761;28;66032;-38
2022/06/05 00:50:07;;;;;;;21.88;13.30;;;;;;;29.38;70.94;100850.22;5054536;28;69921;-37
2022/06/05 00:52:42;;;;;;;17.25;13.80;;;;;;;28.87;70.52;100765.28;5053746;28;66834;-38
2022/06/05 00:55:14;;;;;;;18.98;13.70;;;;;;;29.56;70.46;100865.75;5044558;28;69152;-38
2022/06/05 00:57:47;;;;;;;16.35;13.85;;;;;;;29.59;70.45;100873.47;5036088;28;66027;-38
2022/06/05 01:00:40;;;;;;;14.80;13.23;;;;;;;29.50;70.97;100863.91;5048625;28;70323;-37
2022/06/05 01:03:12;;;;;;;26.27;14.80;;;;;;;29.69;70.58;100868.47;5043357;28;65756;-38
2022/06/05 01:05:43;;;;;;;;;;;;;;;29.44;71.61;100864.75;5051325;28;70526;-37
2022/06/05 01:08:15;;;;;;;16.95;11.60;;;;;;;29.69;69.81;100846.84;5043949;28;66091;-36
2022/06/05 01:11:20;;;;;;;10.80;9.80;;;;;;;29.76;70.19;100868.47;5050635;28;70405;-36
2022/06/05 01:14:17;;;;;;;16.23;9.60;;;;;;;29.73;70.07;100863.47;5037058;28;66347;-36
2022/06/05 01:17:34;;;;;;;17.10;11.40;;;;;;;29.66;70.92;100849.97;5047843;28;70876;-36
2022/06/05 01:20:40;;;;;;;11.55;10.52;;;;;;;29.80;70.12;100859.69;5047479;28;66678;-38
2022/06/05 01:23:27;;;;;;;11.63;8.98;;;;;;;29.98;69.32;100863.59;5017596;28;69790;-36
2022/06/05 01:26:26;;;;;;;16.60;10.73;;;;;;;29.66;69.74;100804.00;5050222;28;66061;-37
2022/06/05 01:29:13;;;;;;;16.17;13.48;;;;;;;30.06;69.82;100864.19;5039468;28;70302;-36
2022/06/05 01:32:06;;;;;;;17.73;13.00;;;;;;;30.04;70.07;100862.72;5048347;28;65544;-38
2022/06/05 01:34:53;;;;;;;12.63;11.43;;;;;;;29.99;69.63;100857.13;5037312;28;69215;-37
2022/06/05 01:37:48;;;;;;;12.70;11.45;;;;;;;30.13;69.25;100864.13;5046703;28;66546;-39
2022/06/05 01:40:34;;;;;;;10.27;9.38;;;;;;;29.83;69.01;100807.88;5044711;28;70664;-37
2022/06/05 01:43:10;;;;;;;10.60;9.05;;;;;;;30.20;69.08;100870.34;5040537;28;65521;-38
2022/06/05 01:45:46;;;;;;;8.60;8.00;;;;;;;30.22;68.83;100868.28;5048360;28;69695;-38
2022/06/05 01:48:24;;;;;;;13.32;8.85;;;;;;;30.30;68.27;100860.97;5035302;28;66340;-38
2022/06/05 01:51:03;;;;;;;10.00;9.00;;;;;;;30.36;67.37;100860.09;5041796;28;70589;-37
2022/06/05 01:53:43;;;;;;;10.00;8.60;;;;;;;30.07;67.37;100805.50;5038625;28;66419;-37
2022/06/05 01:56:19;;;;;;;8.40;7.60;;;;;;;30.48;66.34;100861.91;5042059;28;69951;-37
2022/06/05 01:58:59;;;;;;;8.05;7.50;;;;;;;29.99;66.14;100765.16;5039829;28;66233;-37
2022/06/05 02:01:36;;;;;;;7.78;7.18;;;;;;;30.72;66.35;100884.63;5044407;28;70441;-36
2022/06/05 02:04:19;;;;;;;7.35;6.63;;;;;;;30.41;65.84;100822.38;5044476;28;66114;-36
2022/06/05 02:06:58;;;;;;;7.95;7.20;;;;;;;30.84;65.07;100887.50;5040498;28;70357;-37
2022/06/05 02:09:37;;;;;;;6.90;6.38;;;;;;;30.81;64.69;100860.00;5046760;28;66236;-36
2022/06/05 02:12:09;;;;;;;7.22;6.72;;;;;;;30.96;64.92;100894.91;5043120;28;69217;-36
2022/06/05 02:14:42;;;;;;;8.48;6.88;;;;;;;30.99;64.60;100889.88;5044017;28;66612;-37
2022/06/05 02:17:15;;;;;;;7.15;6.57;;;;;;;31.03;64.41;100882.94;5037129;28;69837;-37
2022/06/05 02:19:46;;;;;;;6.88;6.38;;;;;;;31.06;64.18;100885.22;5048795;28;66740;-37
2022/06/05 02:22:29;;;;;;;6.43;5.93;;;;;;;31.05;64.13;100877.31;5046940;28;70058;-38
2022/06/05 02:25:03;;;;;;;5.68;5.38;;;;;;;31.14;63.57;100882.22;5051827;28;65779;-37
2022/06/05 02:27:44;;;;;;;;;;;;;;;30.83;64.46;100879.59;5045847;28;69991;-37
2022/06/05 02:30:52;;;;;;;;;;;;;;;;;;;;;
2022/06/05 02:34:02;;;;;;;5.28;4.80;;;;;;;31.13;63.27;100896.84;5028310;28;70116;-37
2022/06/05 02:36:35;;;;;;;6.00;5.05;;;;;;;31.27;63.24;100894.00;5048677;27;66679;-37
2022/06/05 02:39:06;;;;;;;7.57;5.50;;;;;;;31.31;62.87;100887.09;5041928;28;69752;-42
2022/06/05 02:41:55;;;;;;;5.20;4.88;;;;;;;31.21;62.66;100870.53;5049145;28;65560;-37
2022/06/05 02:44:44;;;;;;;5.40;4.95;;;;;;;31.28;62.61;100873.97;5048828;28;68959;-36
2022/06/05 02:47:35;;;;;;;5.53;4.65;;;;;;;31.41;62.16;100875.78;5051592;28;66735;-36
2022/06/05 02:50:06;;;;;;;;;;;;;;;31.07;63.45;100870.63;5045538;28;70120;-37
2022/06/05 02:52:38;;;;;;;4.63;4.32;;;;;;;31.42;62.50;100872.00;5050558;28;66000;-37
2022/06/05 02:55:11;;;;;;;4.68;4.38;;;;;;;30.87;62.44;100767.03;5052681;28;69817;-38
2022/06/05 02:57:43;;;;;;;4.88;4.50;;;;;;;31.47;62.14;100859.44;5057842;28;66241;-38
2022/06/05 03:00:18;;;;;;;4.80;4.50;;;;;;;31.53;62.17;100863.94;5040106;28;70505;-38
2022/06/05 03:05:39;;;;;;;4.57;4.28;;;;;;;31.47;62.20;100847.75;5046579;28;69270;-37
2022/06/05 03:08:13;;;;;;;;;;;;;;;31.27;62.25;100861.50;5047770;28;66760;-37
2022/06/05 03:10:44;;;;;;;4.63;4.22;;;;;;;31.58;62.17;100861.41;5044454;28;68656;-38
2022/06/05 03:13:16;;;;;;;4.57;4.28;;;;;;;31.64;62.00;100865.09;5047150;28;65342;-38
2022/06/05 03:15:47;;;;;;;4.28;3.97;;;;;;;31.65;61.67;100860.47;5049954;28;69751;-37
2022/06/05 03:18:17;;;;;;;4.70;4.40;;;;;;;31.72;61.84;100862.06;5046737;28;66149;-37
2022/06/05 03:20:49;;;;;;;4.07;3.67;;;;;;;31.75;61.54;100860.78;5058003;28;70621;-37
2022/06/05 03:23:19;;;;;;;4.05;3.75;;;;;;;31.74;61.39;100861.84;5032837;28;66213;-36
2022/06/05 03:25:50;;;;;;;4.70;4.00;;;;;;;31.80;61.09;100858.22;5047884;28;70241;-38
2022/06/05 03:28:21;;;;;;;9.65;4.68;;;;;;;31.82;61.65;100848.00;5054278;28;65933;-36
2022/06/05 03:30:52;;;;;;;4.60;4.28;;;;;;;31.86;61.19;100851.88;5048853;28;69680;-37
2022/06/05 03:33:23;;;;;;;4.30;4.00;;;;;;;31.85;61.20;100844.81;5045880;28;65742;-37
2022/06/05 03:35:54;;;;;;;5.30;4.65;;;;;;;31.86;60.98;100841.03;5042428;28;69806;-37
2022/06/05 03:38:25;;;;;;;4.53;4.22;;;;;;;31.89;61.12;100829.72;5044217;28;66448;-36
2022/06/05 03:40:56;;;;;;;4.15;3.85;;;;;;;31.90;61.42;100825.13;5044274;28;70432;-37
2022/06/05 03:43:27;;;;;;;4.20;3.90;;;;;;;31.92;61.16;100815.75;5054891;28;66516;-39
2022/06/05 03:46:06;;;;;;;4.68;4.20;;;;;;;31.73;60.58;100784.25;5054797;28;69479;-38
2022/06/05 03:48:38;;;;;;;3.90;3.60;;;;;;;31.97;61.00;100815.88;5041768;28;66784;-37
2022/06/05 03:51:12;;;;;;;3.92;3.63;;;;;;;31.76;61.13;100776.50;5040149;28;70503;-37
2022/06/05 03:53:44;;;;;;;4.38;3.97;;;;;;;32.00;60.77;100806.47;5053107;28;66298;-37
2022/06/05 03:56:16;;;;;;;;;;;;;;;31.67;61.36;100809.56;5048815;28;70027;-37
2022/06/05 03:58:48;;;;;;;4.05;3.75;;;;;;;31.89;60.68;100791.75;5050623;28;65954;-38
2022/06/05 04:01:20;;;;;;;;;;;;;;;31.68;61.57;100800.38;5031073;28;71001;-37
2022/06/05 04:03:52;;;;;;;3.53;3.23;;;;;;;31.99;60.47;100797.50;5054321;27;64539;-37
2022/06/05 04:06:29;;;;;;;3.95;3.65;;;;;;;31.80;60.20;100757.88;5051769;28;70655;-37
2022/06/05 04:09:05;;;;;;;3.88;3.45;;;;;;;31.84;60.30;100764.47;5042416;28;65839;-38
2022/06/05 04:11:39;;;;;;;4.57;3.90;;;;;;;31.99;60.69;100780.41;5040121;28;69653;-38
2022/06/05 04:14:10;;;;;;;3.30;3.10;;;;;;;32.10;60.21;100786.94;5046791;28;65784;-37
2022/06/05 04:16:42;;;;;;;3.60;3.13;;;;;;;31.91;60.53;100745.41;5048564;28;69889;-37
2022/06/05 04:19:13;;;;;;;3.65;3.30;;;;;;;32.09;60.44;100768.97;5042097;28;65347;-37
2022/06/05 04:21:47;;;;;;;3.42;3.17;;;;;;;32.14;60.45;100769.13;5058150;28;71806;-37
2022/06/05 04:24:20;;;;;;;3.53;3.22;;;;;;;32.14;60.28;100760.97;5053859;28;65241;-37
2022/06/05 04:26:50;;;;;;;3.55;3.17;;;;;;;32.15;60.05;100762.63;5049972;28;70089;-37
2022/06/05 04:29:21;;;;;;;3.00;2.80;;;;;;;32.20;59.97;100760.84;5053414;28;66269;-38
2022/06/05 04:31:52;;;;;;;3.40;2.67;;;;;;;32.20;59.86;100749.19;5039049;28;69979;-38
2022/06/05 04:34:24;;;;;;;4.18;3.35;;;;;;;32.23;59.65;100756.84;5025455;28;66006;-37
2022/06/05 04:36:55;;;;;;;5.97;3.40;;;;;;;32.24;59.53;100750.38;5053474;28;70127;-38
2022/06/05 04:39:26;;;;;;;4.43;2.85;;;;;;;32.27;59.88;100739.06;5047257;28;66346;-38
2022/06/05 04:41:56;;;;;;;3.17;2.95;;;;;;;32.28;59.81;100743.41;5049124;28;70224;-37
2022/06/05 04:44:27;;;;;;;2.80;2.60;;;;;;;32.29;60.06;100736.94;5044778;28;65715;-38
2022/06/05 04:46:58;;;;;;;6.80;3.00;;;;;;;32.24;60.03;100725.97;5050380;28;69981;-38
2022/06/05 04:49:29;;;;;;;3.05;2.50;;;;;;;32.29;60.04;100739.66;5048810;28;65980;-37
2022/06/05 04:52:00;;;;;;;3.80;2.30;;;;;;;32.31;59.71;100736.69;5043777;28;71128;-38
2022/06/05 04:54:31;;;;;;;4.53;2.63;;;;;;;32.32;59.86;100731.06;5051310;28;65488;-37
2022/06/05 04:57:02;;;;;;;3.53;2.47;;;;;;;32.34;59.74;100737.06;5044991;28;69962;-37
2022/06/05 04:59:33;;;;;;;2.92;2.63;;;;;;;32.35;59.44;100736.00;5052136;28;65728;-38
2022/06/05 05:02:06;;;;;;;2.80;2.60;;;;;;;32.37;59.82;100727.63;5034640;28;43971;-38
2022/06/05 05:04:37;;;;;;;2.60;2.43;;;;;;;32.37;59.67;100720.28;5031113;28;65005;-37
2022/06/05 05:07:08;;;;;;;2.50;2.25;;;;;;;32.41;59.94;100718.78;5049859;28;70040;-37
2022/06/05 05:09:39;;;;;;;4.57;2.40;;;;;;;32.40;59.37;100716.28;5052543;28;65679;-38
2022/06/05 05:12:10;;;;;;;2.28;2.08;;;;;;;32.45;59.68;100703.66;5041657;28;69619;-37
2022/06/05 05:14:41;;;;;;;3.38;2.80;;;;;;;32.43;59.50;100699.53;5049903;28;66692;-38
2022/06/05 05:17:12;;;;;;;2.20;2.10;;;;;;;32.40;59.57;100684.56;5044747;28;69253;-38
2022/06/05 05:19:43;;;;;;;2.47;2.28;;;;;;;32.50;59.77;100689.41;5052898;28;65968;-38
2022/06/05 05:22:14;;;;;;;2.50;2.30;;;;;;;32.53;59.86;100693.56;5048560;28;70324;-39
2022/06/05 05:24:45;;;;;;;2.70;2.50;;;;;;;32.54;59.48;100689.75;5047378;28;66052;-38
2022/06/05 05:27:15;;;;;;;2.88;2.67;;;;;;;32.58;59.54;100693.69;5048019;28;71039;-38
2022/06/05 05:29:46;;;;;;;3.80;2.45;;;;;;;32.58;59.25;100690.97;5043151;28;65532;-37
2022/06/05 05:32:17;;;;;;;2.67;2.47;;;;;;;32.63;59.49;100685.66;5038428;28;68910;-38
2022/06/05 05:34:48;;;;;;;2.30;2.13;;;;;;;32.66;59.25;100685.16;5045773;28;66345;-38
2022/06/05 05:37:19;;;;;;;3.40;2.20;;;;;;;32.67;59.18;100681.38;5043646;28;70731;-38
2022/06/05 05:42:38;;;;;;;2.85;2.42;;;;;;;32.70;59.19;100673.56;5051793;28;68952;-40
2022/06/05 05:45:09;;;;;;;2.15;1.95;;;;;;;32.74;59.31;100663.09;5051067;28;65618;-38
2022/06/05 05:47:40;;;;;;;2.92;2.70;;;;;;;32.74;59.38;100657.66;5048578;28;70004;-36
2022/06/05 05:50:15;;;;;;;5.47;2.45;;;;;;;32.77;59.43;100654.44;5046163;28;65819;-38
2022/06/05 05:52:46;;;;;;;2.60;2.00;;;;;;;32.83;59.20;100649.97;5039529;28;70075;-37
2022/06/05 05:55:19;;;;;;;2.20;2.00;;;;;;;32.81;59.12;100647.47;5054274;28;65364;-38
2022/06/05 05:57:50;;;;;;;2.72;2.35;;;;;;;32.81;58.97;100623.00;5042403;28;69242;-37
2022/06/05 06:00:21;;;;;;;2.72;2.38;;;;;;;32.82;59.13;100632.84;5045550;28;67737;-38
2022/06/05 06:02:52;;;;;;;3.80;2.08;;;;;;;32.89;59.34;100635.41;5043618;28;69738;-38
2022/06/05 06:05:23;;;;;;;1.63;1.50;;;;;;;32.89;59.32;100638.13;5050347;28;67773;-40
2022/06/05 06:07:54;;;;;;;2.07;1.87;;;;;;;32.92;59.23;100633.03;5043106;28;70115;-38
2022/06/05 06:10:25;;;;;;;1.90;1.80;;;;;;;32.98;58.90;100630.41;5046357;28;65506;-38
2022/06/05 06:12:56;;;;;;;5.72;2.08;;;;;;;33.00;58.94;100628.31;5046429;28;71636;-38
2022/06/05 06:15:27;;;;;;;2.65;1.80;;;;;;;33.06;58.79;100621.91;5048057;28;65363;-37
2022/06/05 06:17:57;;;;;;;2.22;2.05;;;;;;;33.03;58.59;100604.22;5047997;28;69960;-37
2022/06/05 06:20:29;;;;;;;2.07;1.60;;;;;;;33.07;58.94;100607.25;5035576;28;65619;-37
2022/06/05 06:23:00;;;;;;;2.73;1.70;;;;;;;33.15;58.92;100615.88;5049180;28;68733;-37
2022/06/05 06:25:30;;;;;;;2.55;2.10;;;;;;;33.21;58.53;100605.06;5056735;28;66001;-38
2022/06/05 06:28:01;;;;;;;3.33;2.00;;;;;;;33.25;58.50;100598.91;5044606;28;70034;-38
2022/06/05 06:30:33;;;;;;;2.25;1.45;;;;;;;33.29;58.42;100600.09;5040138;28;66312;-38
2022/06/05 06:33:05;;;;;;;1.52;1.42;;;;;;;33.32;58.41;100588.75;5043236;28;69119;-37
2022/06/05 06:35:42;;;;;;;2.05;1.60;;;;;;;33.32;58.48;100588.75;5044704;28;66158;-39
2022/06/05 06:38:13;;;;;;;2.15;1.40;;;;;;;33.40;58.23;100600.28;5049990;28;69104;-36
2022/06/05 06:40:43;;;;;;;3.35;1.58;;;;;;;33.44;58.11;100593.28;5057535;28;65854;-37
2022/06/05 06:43:20;;;;;;;1.98;1.48;;;;;;;33.50;58.16;100595.84;5043867;28;69066;-37
2022/06/05 06:45:51;;;;;;;1.73;1.30;;;;;;;33.35;57.90;100569.22;5048964;28;66106;-39
2022/06/05 06:48:22;;;;;;;1.37;1.13;;;;;;;33.32;56.14;100569.72;5046896;28;69230;-38
2022/06/05 06:50:54;;;;;;;1.30;1.20;;;;;;;33.41;55.86;100574.75;5039379;28;66705;-38
2022/06/05 06:53:28;;;;;;;2.53;1.35;;;;;;;33.18;53.06;100565.63;5046207;28;69862;-37
2022/06/05 06:55:59;;;;;;;1.50;1.30;;;;;;;33.20;53.27;100574.34;5049757;28;66625;-38
2022/06/05 06:58:30;;;;;;;1.48;1.13;;;;;;;33.13;52.15;100568.25;5045082;28;70188;-38
2022/06/05 07:01:00;;;;;;;1.25;1.15;;;;;;;33.08;51.25;100560.00;5046686;28;65448;-37
2022/06/05 07:03:33;;;;;;;1.92;1.23;;;;;;;33.10;50.41;100555.16;5044184;28;70143;-37
2022/06/05 07:06:08;;;;;;;1.70;1.30;;;;;;;32.98;49.95;100524.44;5048408;28;66451;-38
2022/06/05 07:08:41;;;;;;;1.40;1.30;;;;;;;33.01;48.81;100543.00;5045378;28;70189;-37
2022/06/05 07:11:15;;;;;;;3.22;1.33;;;;;;;32.99;48.13;100539.69;5041490;28;66562;-39
2022/06/05 07:13:50;;;;;;;1.75;1.20;;;;;;;32.97;48.68;100530.97;5038009;28;70025;-39
2022/06/05 07:16:21;;;;;;;1.20;1.00;;;;;;;32.87;48.52;100520.72;5052668;28;65888;-38
2022/06/05 07:18:52;;;;;;;2.80;0.93;;;;;;;32.93;48.13;100526.03;5049364;28;70128;-37
2022/06/05 07:21:25;;;;;;;1.42;1.17;;;;;;;32.92;46.04;100529.78;5048452;28;66336;-37
2022/06/05 07:23:57;;;;;;;1.35;1.00;;;;;;;32.88;46.24;100523.19;5047503;28;70227;-37
2022/06/05 07:26:31;;;;;;;1.30;1.17;;;;;;;32.61;45.39;100482.19;5048599;28;66110;-37
2022/06/05 07:29:02;;;;;;;1.50;1.00;;;;;;;32.80;45.28;100520.88;5046761;28;69691;-37
2022/06/05 07:31:38;;;;;;;1.25;1.10;;;;;;;32.81;45.36;100530.66;5039682;28;65684;-36
2022/06/05 07:34:10;;;;;;;1.20;0.90;;;;;;;32.83;45.97;100528.53;5041886;28;70733;-36
2022/06/05 07:36:41;;;;;;;1.50;0.90;;;;;;;32.82;45.27;100529.63;5055310;28;65170;-36
2022/06/05 07:39:11;;;;;;;1.75;1.10;;;;;;;32.90;46.11;100520.22;5050965;28;71066;-38
2022/06/05 07:41:42;;;;;;;3.17;1.02;;;;;;;33.00;46.71;100522.34;5042116;28;65401;-38
2022/06/05 07:44:13;;;;;;;2.42;1.10;;;;;;;33.07;46.63;100517.56;5053746;28;69681;-38
2022/06/05 07:46:44;;;;;;;1.33;0.80;;;;;;;33.13;46.67;100519.34;5040877;28;67743;-38
2022/06/05 07:49:15;;;;;;;2.10;0.90;;;;;;;33.22;47.14;100509.72;5054892;28;70258;-37
2022/06/05 07:54:36;;;;;;;1.42;1.10;;;;;;;33.37;47.72;100509.13;5046026;28;69935;-38
2022/06/05 07:57:10;;;;;;;1.35;1.00;;;;;;;33.43;47.86;100497.28;5055924;28;66395;-37
2022/06/05 07:59:43;;;;;;;3.00;1.55;;;;;;;33.45;48.07;100489.69;5038362;28;69295;-37
2022/06/05 08:02:18;;;;;;;2.85;1.05;;;;;;;33.21;48.24;100434.69;5049791;28;65902;-38
2022/06/05 08:04:51;;;;;;;2.10;0.98;;;;;;;33.58;48.19;100494.03;5027092;28;71225;-37
2022/06/05 08:07:25;;;;;;;1.83;1.08;;;;;;;33.33;48.69;100429.97;5043513;28;65966;-38
2022/06/05 08:09:57;;;;;;;1.20;0.98;;;;;;;33.65;48.77;100489.22;5047983;28;70338;-36
2022/06/05 08:12:34;;;;;;;2.28;1.48;;;;;;;33.66;49.14;100485.44;5048348;28;65868;-38
2022/06/05 08:15:10;;;;;;;1.95;1.25;;;;;;;33.68;49.40;100483.28;5044456;28;70014;-38
2022/06/05 08:17:41;;;;;;;2.13;1.30;;;;;;;33.73;49.84;100480.66;5053390;28;66564;-38
2022/06/05 08:20:13;;;;;;;1.40;1.15;;;;;;;33.69;50.05;100474.06;5052268;28;69801;-37
2022/06/05 08:22:43;;;;;;;;;;;;;;;33.52;50.37;100479.53;5048676;28;65412;-38
2022/06/05 08:25:14;;;;;;;1.20;1.10;;;;;;;33.76;50.10;100474.69;5044608;28;70367;-37
2022/06/05 08:27:46;;;;;;;4.27;1.83;;;;;;;33.80;50.09;100470.44;5061021;28;66529;-37
2022/06/05 08:30:17;;;;;;;1.05;0.93;;;;;;;33.72;50.66;100446.38;5049457;28;69775;-37
2022/06/05 08:32:48;;;;;;;1.60;1.20;;;;;;;33.80;50.40;100459.53;5046435;28;67255;-38
2022/06/05 08:35:18;;;;;;;1.33;0.90;;;;;;;33.83;50.51;100465.56;5051326;28;70508;-37
2022/06/05 08:43:51;;;;;;;1.23;1.10;;;;;;;33.90;50.62;100472.44;5044151;28;65870;-38
2022/06/05 08:46:48;;;;;;;1.63;1.20;;;;;;;33.81;50.91;100455.75;5043419;28;68964;-37
2022/06/05 08:49:48;;;;;;;3.80;1.20;;;;;;;33.84;50.88;100448.16;5045101;28;66193;-37
2022/06/05 08:52:32;;;;;;;1.50;1.30;;;;;;;33.92;51.21;100462.16;5053452;28;70385;-39
2022/06/05 08:55:09;;;;;;;1.55;1.05;;;;;;;33.95;51.41;100460.81;5043256;28;66100;-37
2022/06/05 08:58:15;;;;;;;1.75;1.20;;;;;;;33.50;51.36;100399.22;5054288;28;69560;-38
2022/06/05 09:00:57;;;;;;;1.73;1.13;;;;;;;33.95;51.60;100455.38;5044485;28;65450;-37
2022/06/05 09:03:42;;;;;;;1.47;1.10;;;;;;;33.94;51.49;100454.56;5056486;28;69489;-37
2022/06/05 09:06:47;;;;;;;1.20;0.98;;;;;;;33.91;51.66;100455.06;5039136;28;66493;-37
2022/06/05 09:09:26;;;;;;;3.85;1.25;;;;;;;33.73;52.08;100409.91;5058718;28;70055;-38
2022/06/05 09:12:11;;;;;;;1.95;1.38;;;;;;;33.92;51.92;100439.56;5048773;28;66581;-36
2022/06/05 09:15:13;;;;;;;1.20;1.10;;;;;;;33.88;52.34;100450.13;5047531;28;69186;-38
2022/06/05 09:17:53;;;;;;;1.50;1.20;;;;;;;33.95;52.08;100444.50;5053521;28;66129;-38
2022/06/05 09:20:31;;;;;;;1.30;1.10;;;;;;;33.97;52.29;100439.63;5058093;28;70482;-38
2022/06/05 09:23:08;;;;;;;1.88;1.45;;;;;;;33.74;52.44;100406.16;5048935;28;64970;-38
2022/06/05 09:26:20;;;;;;;1.88;1.38;;;;;;;33.80;52.93;100443.22;5061830;28;69628;-37
2022/06/05 09:29:13;;;;;;;2.08;1.38;;;;;;;33.95;52.62;100449.94;5063760;27;65628;-37
2022/06/05 09:32:21;;;;;;;2.53;1.38;;;;;;;33.89;52.80;100450.94;5044627;28;70020;-37
2022/06/05 09:34:57;;;;;;;1.48;1.23;;;;;;;33.99;52.66;100464.69;5054026;28;65629;-38
2022/06/05 09:38:14;;;;;;;1.30;1.10;;;;;;;33.84;53.05;100451.69;5046058;28;70301;-38
2022/06/05 09:40:59;;;;;;;2.65;1.50;;;;;;;33.93;53.16;100473.84;5053175;28;65765;-37
2022/06/05 09:43:39;;;;;;;1.27;0.88;;;;;;;34.00;52.79;100475.31;5056054;28;69349;-37
2022/06/05 09:46:10;;;;;;;1.50;1.30;;;;;;;34.00;53.00;100474.50;5042944;28;66275;-37
2022/06/05 09:49:18;;;;;;;1.43;1.17;;;;;;;33.90;53.29;100479.78;5061243;28;70797;-38
2022/06/05 09:51:49;;;;;;;1.77;1.27;;;;;;;33.96;53.17;100478.78;5061846;28;66439;-38
2022/06/05 09:54:30;;;;;;;2.20;1.48;;;;;;;34.02;53.34;100491.41;5052190;28;70052;-38
2022/06/05 10:00:15;;;;;;;2.90;1.52;;;;;;;33.95;53.43;100482.59;5054577;28;69785;-36
2022/06/05 10:02:50;;;;;;;1.40;1.30;;;;;;;33.99;53.68;100478.28;5052067;28;66284;-37
2022/06/05 10:05:36;;;;;;;2.65;1.50;;;;;;;33.65;53.70;100423.94;5053448;28;70109;-36
2022/06/05 10:08:13;;;;;;;2.25;1.67;;;;;;;33.98;53.78;100473.94;5047198;28;66105;-37
2022/06/05 10:10:46;;;;;;;2.63;1.80;;;;;;;33.97;53.98;100469.56;5050093;28;69217;-37
2022/06/05 10:13:21;;;;;;;1.85;1.63;;;;;;;33.98;53.83;100471.19;5048346;28;65324;-37
2022/06/05 10:16:00;;;;;;;2.63;1.40;;;;;;;33.78;53.99;100452.69;5043662;28;69495;-38
2022/06/05 10:18:40;;;;;;;2.58;1.65;;;;;;;33.98;54.18;100474.75;5046122;28;65417;-37
2022/06/05 10:21:14;;;;;;;1.42;1.30;;;;;;;33.95;53.98;100471.72;5048902;28;69032;-37
2022/06/05 10:23:52;;;;;;;4.40;1.60;;;;;;;33.92;54.40;100478.47;5043636;28;66223;-37
2022/06/05 10:26:28;;;;;;;4.28;1.60;;;;;;;33.98;54.32;100472.03;5045645;28;70727;-37
2022/06/05 10:29:11;;;;;;;1.35;1.25;;;;;;;33.93;54.76;100468.41;5047427;28;65478;-37
2022/06/05 10:31:53;;;;;;;1.85;1.50;;;;;;;33.89;54.40;100461.84;5045317;28;70230;-37
2022/06/05 10:34:43;;;;;;;2.42;1.50;;;;;;;33.92;54.76;100485.81;5050337;28;66209;-38
2022/06/05 10:37:48;;;;;;;3.22;1.75;;;;;;;33.85;54.79;100496.03;5048174;28;68982;-38
2022/06/05 10:40:28;;;;;;;1.60;1.33;;;;;;;33.93;54.88;100501.06;5045219;28;65652;-37
2022/06/05 10:43:13;;;;;;;1.75;1.60;;;;;;;33.61;55.13;100446.47;5044534;28;70437;-37
2022/06/05 10:46:26;;;;;;;2.17;1.67;;;;;;;33.77;55.31;100495.41;5045549;28;65474;-38
2022/06/05 10:49:46;;;;;;;1.75;1.52;;;;;;;33.83;55.37;100511.81;5036370;28;69533;-38
2022/06/05 10:52:19;;;;;;;2.13;1.63;;;;;;;33.92;55.24;100511.13;5028713;28;65005;-38
2022/06/05 10:55:08;;;;;;;2.35;1.67;;;;;;;33.92;55.46;100504.88;5046850;28;69662;-38
2022/06/05 10:57:46;;;;;;;3.15;1.60;;;;;;;33.91;55.61;100519.56;5049179;28;65258;-38
2022/06/05 11:01:12;;;;;;;3.05;1.70;;;;;;;33.76;55.90;100529.09;5045164;28;70604;-38
2022/06/05 11:04:10;;;;;;;2.60;1.98;;;;;;;33.23;55.79;100437.16;5027238;28;66720;-37
2022/06/05 11:07:15;;;;;;;3.05;2.10;;;;;;;33.75;56.05;100527.47;5049255;28;70396;-38
2022/06/05 11:09:56;;;;;;;2.78;1.58;;;;;;;33.48;55.91;100480.22;5060763;28;65394;-39
2022/06/05 11:15:52;;;;;;;2.47;1.92;;;;;;;33.70;56.31;100530.09;5043136;28;65836;-37
2022/06/05 11:18:35;;;;;;;1.65;1.55;;;;;;;33.46;56.25;100479.66;5043652;28;70174;-37
2022/06/05 11:21:08;;;;;;;2.33;2.13;;;;;;;33.80;56.03;100524.84;5061565;28;66220;-37
2022/06/05 11:23:50;;;;;;;1.80;1.70;;;;;;;33.38;55.87;100467.31;5047994;28;69426;-37
2022/06/05 11:26:21;;;;;;;2.20;1.70;;;;;;;33.76;56.32;100534.56;5053561;28;66460;-37
2022/06/05 11:29:10;;;;;;;;;;;;;;;33.32;57.12;100528.06;5056159;28;70502;-38
2022/06/05 11:31:47;;;;;;;2.97;1.80;;;;;;;33.71;56.46;100534.50;5046706;28;66006;-38
2022/06/05 11:34:33;;;;;;;2.03;1.80;;;;;;;33.68;56.45;100529.53;5045943;28;69919;-37
2022/06/05 11:37:34;;;;;;;6.40;2.40;;;;;;;33.63;56.70;100534.91;5040691;28;66451;-38
2022/06/05 11:40:24;;;;;;;2.80;2.35;;;;;;;33.62;56.73;100533.25;5044339;28;69261;-38
2022/06/05 11:43:09;;;;;;;3.13;1.90;;;;;;;33.73;56.35;100535.06;5050083;28;66633;-36
2022/06/05 11:46:04;;;;;;;3.22;2.70;;;;;;;33.66;56.39;100528.97;5045547;28;69811;-38
2022/06/05 11:49:06;;;;;;;3.72;3.35;;;;;;;33.60;56.53;100549.00;5041605;28;66913;-38
2022/06/05 11:52:00;;;;;;;4.40;3.47;;;;;;;33.58;56.69;100549.25;5041716;28;70390;-37
2022/06/05 11:55:10;;;;;;;4.07;3.47;;;;;;;33.51;57.06;100542.28;5046222;28;66354;-38
2022/06/05 11:57:56;;;;;;;10.00;4.20;;;;;;;33.69;56.43;100561.13;5040413;28;70213;-38
2022/06/05 12:00:51;;;;;;;4.20;3.83;;;;;;;33.57;56.52;100557.63;5045050;28;65799;-38
2022/06/05 12:04:00;;;;;;;9.85;5.28;;;;;;;33.58;56.89;100571.00;5042599;28;69983;-38
2022/06/05 12:06:46;;;;;;;5.45;4.95;;;;;;;33.61;56.74;100561.53;5040378;28;65520;-37
2022/06/05 12:09:22;;;;;;;6.65;5.38;;;;;;;33.35;56.36;100495.81;5042823;28;70232;-38
2022/06/05 12:11:55;;;;;;;5.68;5.15;;;;;;;33.68;56.46;100554.00;5041471;28;65324;-38
2022/06/05 12:14:49;;;;;;;13.00;6.05;;;;;;;33.64;56.45;100552.88;5045692;28;69581;-38
2022/06/05 12:17:43;;;;;;;5.75;5.32;;;;;;;33.54;56.90;100564.41;5046857;28;65443;-38
2022/06/05 12:20:52;;;;;;;7.63;5.88;;;;;;;33.50;56.68;100568.66;5043718;28;69354;-37
2022/06/05 12:23:22;;;;;;;6.70;6.10;;;;;;;33.62;56.71;100581.38;5040868;28;65854;-38
2022/06/05 12:26:06;;;;;;;10.88;6.43;;;;;;;33.64;56.48;100574.63;5046261;28;70737;-37
2022/06/05 12:28:45;;;;;;;10.52;5.72;;;;;;;33.60;56.35;100570.75;5056556;28;65654;-38
2022/06/05 12:31:31;;;;;;;19.42;6.03;;;;;;;33.53;56.50;100572.81;5043216;28;70896;-37
2022/06/05 12:34:33;;;;;;;8.30;6.15;;;;;;;33.50;56.78;100573.25;5046442;28;65695;-38
2022/06/05 12:37:22;;;;;;;6.10;5.15;;;;;;;33.55;56.74;100570.66;5048564;28;68976;-37
2022/06/05 12:39:56;;;;;;;6.43;5.85;;;;;;;33.50;56.66;100557.78;5049491;28;66464;-38
2022/06/05 12:42:41;;;;;;;6.57;5.57;;;;;;;33.52;56.92;100568.41;5014188;28;70178;-39